logo
Search for airport 
image banner adimage banner adimage banner ad
image banner ad

EIFN - Friarstown

Located in Friarstown, Ireland

ICAO - , IATA -

Data provided by Airmate  

General information

Coordinates: N52°35'36" W8°37'25"
Elevation is 119 feet MSL.
 
View others Airports in County Limerick

Operational data

Special qualification required
Current time UTC:
Current local time:
Weather at : EINN - Shannon ( 24 km )
METAR: EINN 302100Z 31009KT 9999 FEW027 BKN031 12/08 Q1024 NOSIG
TAF: TAF AMD EINN 301849Z 3018/3118 33010KT 9999 FEW020 BKN035 BECMG 3114/3116 30010KT
View NOTAMs / SUP AIP / TFR affecting this airport [VIEW]
Communications frequencies: [VIEW]

Runways:

Airport contact information

Address: Friarstown Ireland

Satellite view of EIFN